createdAt,value
2022-10-15T00:01:30.294Z,86.52
2022-10-15T00:03:58.819Z,86.99
2022-10-15T00:06:26.847Z,86.91
2022-10-15T00:08:54.937Z,86.69
2022-10-15T00:11:26.603Z,86.43
2022-10-15T00:13:55.787Z,86.33
2022-10-15T00:16:25.911Z,85.32
2022-10-15T00:18:56.739Z,85.45
2022-10-15T00:21:24.727Z,84.94
2022-10-15T00:23:53.073Z,84.91
2022-10-15T00:26:22.624Z,85.54
2022-10-15T00:28:54.436Z,85.84
2022-10-15T00:31:24.422Z,85.53
2022-10-15T00:33:53.777Z,86.14
2022-10-15T00:36:24.154Z,85.87
2022-10-15T00:38:52.994Z,85.68
2022-10-15T00:41:25.352Z,85.01
2022-10-15T00:43:57.160Z,85.52
2022-10-15T00:46:28.085Z,85.00
2022-10-15T00:48:59.411Z,84.97
2022-10-15T00:51:32.891Z,85.71
2022-10-15T00:54:02.001Z,85.74
2022-10-15T00:56:34.478Z,84.84
2022-10-15T00:59:06.516Z,84.43
2022-10-15T01:01:34.620Z,85.85
2022-10-15T01:04:04.056Z,85.97
2022-10-15T01:06:31.981Z,86.79
2022-10-15T01:09:01.271Z,86.37
2022-10-15T01:11:43.632Z,87.14
2022-10-15T01:14:29.726Z,86.78
2022-10-15T01:17:05.230Z,87.24
2022-10-15T01:20:07.581Z,87.83
2022-10-15T01:22:49.051Z,87.63
2022-10-15T01:25:30.941Z,87.45
2022-10-15T01:28:06.025Z,87.30
2022-10-15T01:30:40.162Z,87.01
2022-10-15T01:33:23.265Z,85.11
2022-10-15T01:35:54.689Z,84.43
2022-10-15T01:38:32.561Z,84.89
2022-10-15T01:41:05.166Z,85.50
2022-10-15T01:43:41.266Z,85.80
2022-10-15T01:46:15.717Z,86.92
2022-10-15T01:48:44.603Z,88.05
2022-10-15T01:51:15.276Z,87.76
2022-10-15T01:53:45.284Z,88.79
2022-10-15T01:56:18.837Z,87.95
2022-10-15T01:58:50.559Z,87.80
2022-10-15T02:01:20.011Z,88.66
2022-10-15T02:03:49.566Z,87.77
2022-10-15T02:06:23.474Z,87.02
2022-10-15T02:09:04.494Z,84.91
2022-10-15T02:11:38.243Z,84.90
2022-10-15T02:14:15.316Z,85.12
2022-10-15T02:16:49.102Z,84.27
2022-10-15T02:19:22.907Z,83.89
2022-10-15T02:21:56.396Z,82.90
2022-10-15T02:24:27.619Z,83.85
2022-10-15T02:26:58.804Z,84.95
2022-10-15T02:29:32.982Z,85.40
2022-10-15T02:32:03.478Z,84.43
2022-10-15T02:34:34.114Z,84.37
2022-10-15T02:37:04.879Z,84.53
2022-10-15T02:39:33.088Z,83.84
2022-10-15T02:42:02.297Z,83.72
2022-10-15T02:44:30.230Z,83.79
2022-10-15T02:47:00.314Z,83.91
2022-10-15T02:49:29.629Z,84.32
2022-10-15T02:51:57.566Z,84.57
2022-10-15T02:54:25.534Z,85.46
2022-10-15T02:56:53.450Z,85.59
2022-10-15T02:59:22.081Z,86.32
2022-10-15T03:01:50.254Z,86.67
2022-10-15T03:04:18.258Z,85.71
2022-10-15T03:06:47.839Z,85.56
2022-10-15T03:09:15.882Z,85.81
2022-10-15T03:11:43.899Z,85.61
2022-10-15T03:14:12.110Z,85.27
2022-10-15T03:16:40.131Z,85.37
2022-10-15T03:19:08.382Z,85.47
2022-10-15T03:21:36.341Z,85.50
2022-10-15T03:24:06.368Z,85.76
2022-10-15T03:26:34.449Z,85.87
2022-10-15T03:29:02.391Z,85.22
2022-10-15T03:31:30.309Z,84.49
2022-10-15T03:33:58.229Z,84.80
2022-10-15T03:36:26.311Z,84.77
2022-10-15T03:38:54.356Z,83.95
2022-10-15T03:41:23.721Z,83.94
2022-10-15T03:43:51.638Z,83.91
2022-10-15T03:46:19.637Z,83.85
2022-10-15T03:48:50.509Z,84.01
2022-10-15T03:51:22.731Z,84.23
2022-10-15T03:53:53.465Z,84.78
2022-10-15T03:56:23.193Z,84.54
2022-10-15T03:58:51.513Z,84.53
2022-10-15T04:01:20.260Z,84.36
2022-10-15T04:03:48.665Z,84.61
2022-10-15T04:06:16.570Z,84.35
2022-10-15T04:08:44.803Z,84.54
2022-10-15T04:11:12.822Z,83.69
2022-10-15T04:13:42.166Z,83.57
2022-10-15T04:16:10.181Z,83.65
2022-10-15T04:18:38.169Z,83.73
2022-10-15T04:21:06.166Z,84.13
2022-10-15T04:23:34.107Z,84.69
2022-10-15T04:26:02.796Z,85.40
2022-10-15T04:28:30.856Z,85.49
2022-10-15T04:31:00.693Z,85.76
2022-10-15T04:33:29.385Z,86.32
2022-10-15T04:36:02.293Z,86.19
2022-10-15T04:38:30.845Z,85.50
2022-10-15T04:41:03.442Z,85.67
2022-10-15T04:43:31.817Z,85.86
2022-10-15T04:46:02.785Z,86.35
2022-10-15T04:48:32.032Z,87.06
2022-10-15T04:51:05.133Z,87.24
2022-10-15T04:53:33.880Z,87.87
2022-10-15T04:56:03.613Z,87.41
2022-10-15T04:58:33.093Z,87.73
2022-10-15T05:01:03.161Z,87.59
2022-10-15T05:03:31.160Z,87.88
2022-10-15T05:06:02.772Z,87.55
2022-10-15T05:08:31.085Z,88.49
2022-10-15T05:11:02.278Z,89.12
2022-10-15T05:13:30.920Z,90.68
2022-10-15T05:15:59.583Z,91.59
2022-10-15T05:18:29.291Z,92.96
2022-10-15T05:20:57.452Z,94.42
2022-10-15T05:23:26.950Z,95.36
2022-10-15T05:25:55.063Z,95.34
2022-10-15T05:28:23.094Z,96.93
2022-10-15T05:30:51.105Z,97.76
2022-10-15T05:33:19.090Z,97.69
2022-10-15T05:35:48.631Z,98.01
2022-10-15T05:38:16.670Z,97.70
2022-10-15T05:40:49.535Z,98.45
2022-10-15T05:43:17.675Z,98.23
2022-10-15T05:45:45.647Z,97.33
2022-10-15T05:48:13.704Z,97.32
2022-10-15T05:50:41.714Z,97.27
2022-10-15T05:53:11.283Z,96.29
2022-10-15T05:55:39.525Z,96.62
2022-10-15T05:58:07.512Z,96.29
2022-10-15T06:00:36.966Z,96.25
2022-10-15T06:03:05.100Z,96.40
2022-10-15T06:05:33.542Z,96.89
2022-10-15T06:08:01.619Z,96.89
2022-10-15T06:10:31.078Z,97.62
2022-10-15T06:12:59.011Z,98.28
2022-10-15T06:15:27.185Z,99.24
2022-10-15T06:17:55.350Z,99.36
2022-10-15T06:20:23.644Z,100.00
2022-10-15T06:22:51.630Z,100.00
2022-10-15T06:25:19.642Z,100.00
2022-10-15T06:27:49.051Z,99.84
2022-10-15T06:30:17.203Z,99.58
2022-10-15T06:32:48.936Z,97.75
2022-10-15T06:35:17.106Z,96.77
2022-10-15T06:37:45.382Z,96.15
2022-10-15T06:40:14.262Z,95.78
2022-10-15T06:42:43.088Z,94.56
2022-10-15T06:45:14.876Z,94.51
2022-10-15T06:47:44.859Z,97.05
2022-10-15T06:50:13.014Z,96.76
2022-10-15T06:52:41.030Z,93.59
2022-10-15T06:55:09.709Z,88.60
2022-10-15T06:57:37.767Z,88.11
2022-10-15T07:00:06.518Z,86.30
2022-10-15T07:02:37.828Z,84.94
2022-10-15T07:05:06.588Z,85.19
2022-10-15T07:07:34.525Z,84.25
2022-10-15T07:10:02.528Z,83.99
2022-10-15T07:12:30.490Z,84.23
2022-10-15T07:14:58.482Z,82.10
2022-10-15T07:17:26.509Z,80.53
2022-10-15T07:19:55.882Z,78.82
2022-10-15T07:22:24.230Z,82.00
2022-10-15T07:24:52.417Z,78.13
2022-10-15T07:27:20.898Z,79.04
2022-10-15T07:29:48.997Z,75.30
2022-10-15T07:32:16.955Z,75.87
2022-10-15T07:34:44.939Z,74.71
2022-10-15T07:37:14.840Z,72.66
2022-10-15T07:39:43.432Z,73.01
2022-10-15T07:44:44.541Z,72.49
2022-10-15T07:47:12.549Z,73.91
2022-10-15T07:49:40.785Z,72.51
2022-10-15T07:52:09.641Z,72.43
2022-10-15T07:54:39.329Z,71.65
2022-10-15T07:57:08.424Z,67.74
2022-10-15T07:59:36.645Z,67.90
2022-10-15T08:02:04.593Z,68.63
2022-10-15T08:04:34.797Z,67.65
2022-10-15T08:07:05.732Z,69.54
2022-10-15T08:09:36.316Z,69.48
2022-10-15T08:12:07.155Z,70.34
2022-10-15T08:14:35.789Z,70.81
2022-10-15T08:17:04.733Z,70.35
2022-10-15T08:19:32.962Z,73.30
2022-10-15T08:22:01.266Z,68.19
2022-10-15T08:24:30.357Z,69.02
2022-10-15T08:26:58.773Z,67.36
2022-10-15T08:29:28.250Z,67.81
2022-10-15T08:31:56.177Z,68.84
2022-10-15T08:34:24.579Z,66.91
2022-10-15T08:36:52.714Z,65.75
2022-10-15T08:39:20.800Z,66.36
2022-10-15T08:41:52.554Z,66.73
2022-10-15T08:44:27.750Z,68.07
2022-10-15T08:47:02.899Z,64.56
2022-10-15T08:49:42.832Z,65.69
2022-10-15T08:52:21.487Z,67.03
2022-10-15T08:54:49.738Z,65.15
2022-10-15T08:57:39.631Z,67.89
2022-10-15T09:00:17.297Z,68.68
2022-10-15T09:02:53.689Z,68.43
2022-10-15T09:05:29.923Z,68.27
2022-10-15T09:08:04.171Z,67.85
2022-10-15T09:10:40.857Z,69.03
2022-10-15T09:13:16.221Z,71.17
2022-10-15T09:15:50.830Z,70.62
2022-10-15T09:18:24.760Z,69.85
2022-10-15T09:20:54.615Z,72.30
2022-10-15T09:23:25.188Z,68.89
2022-10-15T09:26:00.431Z,68.17
2022-10-15T09:28:35.763Z,68.85
2022-10-15T09:31:04.022Z,65.91
2022-10-15T09:33:40.207Z,66.95
2022-10-15T09:36:27.602Z,65.85
2022-10-15T09:39:06.260Z,66.65
2022-10-15T09:41:44.558Z,67.33
2022-10-15T09:44:17.402Z,66.28
2022-10-15T09:46:49.629Z,65.52
2022-10-15T09:49:25.222Z,65.61
2022-10-15T09:52:01.579Z,64.36
2022-10-15T09:54:39.951Z,68.72
2022-10-15T09:57:10.921Z,64.58
2022-10-15T09:59:38.994Z,66.23
2022-10-15T10:02:20.649Z,65.20
2022-10-15T10:04:50.345Z,65.46
2022-10-15T10:07:33.623Z,63.58
2022-10-15T10:10:05.224Z,63.23
2022-10-15T10:12:36.599Z,62.36
2022-10-15T10:15:09.898Z,63.54
2022-10-15T10:17:38.340Z,61.74
2022-10-15T10:20:19.929Z,60.93
2022-10-15T10:22:51.559Z,61.59
2022-10-15T10:25:40.262Z,59.92
2022-10-15T10:28:18.425Z,61.73
2022-10-15T10:30:55.137Z,60.50
2022-10-15T10:33:28.130Z,60.55
2022-10-15T10:35:58.371Z,63.59
2022-10-15T10:38:30.233Z,60.66
2022-10-15T10:41:05.642Z,60.95
2022-10-15T10:43:39.138Z,60.76
2022-10-15T10:46:19.200Z,60.01
2022-10-15T10:48:49.042Z,61.68
2022-10-15T10:51:21.048Z,62.20
2022-10-15T10:53:55.533Z,59.30
2022-10-15T10:56:25.810Z,58.10
2022-10-15T10:58:59.205Z,57.89
2022-10-15T11:01:28.211Z,57.78
2022-10-15T11:03:56.407Z,56.86
2022-10-15T11:06:46.101Z,55.01
2022-10-15T11:09:31.268Z,55.27
2022-10-15T11:12:13.487Z,54.77
2022-10-15T11:14:49.589Z,56.77
2022-10-15T11:17:27.286Z,56.10
2022-10-15T11:22:57.926Z,55.74
2022-10-15T11:25:35.948Z,55.29
2022-10-15T11:28:30.312Z,54.45
2022-10-15T11:31:03.888Z,53.55
2022-10-15T11:33:52.705Z,55.77
2022-10-15T11:36:38.019Z,56.33
2022-10-15T11:39:25.612Z,51.12
2022-10-15T11:42:01.061Z,52.85
2022-10-15T11:44:50.619Z,52.51
2022-10-15T11:47:34.595Z,52.25
2022-10-15T11:50:13.307Z,52.39
2022-10-15T11:52:53.857Z,51.87
2022-10-15T11:55:27.563Z,50.94
2022-10-15T11:58:01.214Z,50.85
2022-10-15T12:00:34.889Z,52.80
2022-10-15T12:03:08.989Z,52.01
2022-10-15T12:05:41.657Z,52.10
2022-10-15T12:08:14.017Z,52.83
2022-10-15T12:11:01.158Z,51.91
2022-10-15T12:13:35.830Z,52.23
2022-10-15T12:16:15.835Z,51.24
2022-10-15T12:18:50.614Z,47.62
2022-10-15T12:21:35.086Z,51.21
2022-10-15T12:24:03.730Z,49.78
2022-10-15T12:26:34.497Z,49.63
2022-10-15T12:29:05.346Z,49.15
2022-10-15T12:31:48.490Z,49.59
2022-10-15T12:34:33.789Z,48.52
2022-10-15T12:37:04.575Z,49.25
2022-10-15T12:39:48.037Z,49.67
2022-10-15T12:42:27.588Z,50.04
2022-10-15T12:44:57.815Z,47.46
2022-10-15T12:47:50.882Z,47.96
2022-10-15T12:50:20.987Z,47.25
2022-10-15T12:53:00.428Z,47.15
2022-10-15T12:55:32.175Z,49.53
2022-10-15T12:58:05.082Z,49.66
2022-10-15T13:00:44.192Z,49.86
2022-10-15T13:03:34.026Z,50.96
2022-10-15T13:06:23.802Z,51.39
2022-10-15T13:08:55.291Z,50.13
2022-10-15T13:11:26.127Z,50.37
2022-10-15T13:14:00.611Z,49.43
2022-10-15T13:16:29.395Z,48.51
2022-10-15T13:18:59.200Z,48.42
2022-10-15T13:21:52.485Z,48.71
2022-10-15T13:24:22.674Z,50.35
2022-10-15T13:26:51.621Z,51.70
2022-10-15T13:29:23.963Z,50.40
2022-10-15T13:31:53.209Z,50.28
2022-10-15T13:34:28.728Z,50.18
2022-10-15T13:36:58.897Z,50.44
2022-10-15T13:42:11.022Z,50.47
2022-10-15T13:44:40.866Z,51.65
2022-10-15T13:47:27.125Z,53.00
2022-10-15T13:50:13.654Z,52.78
2022-10-15T13:52:43.776Z,50.70
2022-10-15T13:55:23.633Z,51.77
2022-10-15T13:57:57.180Z,50.97
2022-10-15T14:00:29.863Z,52.29
2022-10-15T14:03:20.745Z,51.92
2022-10-15T14:05:50.564Z,51.50
2022-10-15T14:08:21.544Z,52.32
2022-10-15T14:10:51.080Z,51.27
2022-10-15T14:13:19.662Z,50.72
2022-10-15T14:15:54.992Z,51.40
2022-10-15T14:18:32.843Z,51.70
2022-10-15T14:21:01.786Z,51.49
2022-10-15T14:23:30.131Z,51.59
2022-10-15T14:26:01.809Z,51.94
2022-10-15T14:28:32.152Z,52.07
2022-10-15T14:31:02.905Z,51.18
2022-10-15T14:33:46.698Z,51.18
2022-10-15T14:36:24.790Z,51.26
2022-10-15T14:38:54.066Z,51.62
2022-10-15T14:41:30.760Z,49.75
2022-10-15T14:44:07.254Z,50.91
2022-10-15T14:46:41.706Z,51.48
2022-10-15T14:49:23.526Z,51.94
2022-10-15T14:52:02.431Z,52.64
2022-10-15T14:54:36.935Z,52.98
2022-10-15T14:57:06.227Z,53.12
2022-10-15T14:59:38.589Z,53.55
2022-10-15T15:02:15.143Z,52.16
2022-10-15T15:04:45.523Z,52.93
2022-10-15T15:07:16.498Z,52.73
2022-10-15T15:09:44.715Z,53.35
2022-10-15T15:12:21.712Z,53.79
2022-10-15T15:14:52.678Z,56.64
2022-10-15T15:17:24.166Z,57.36
2022-10-15T15:19:54.617Z,56.83
2022-10-15T15:22:28.361Z,57.72
2022-10-15T15:24:56.692Z,58.67
2022-10-15T15:27:27.555Z,59.96
2022-10-15T15:29:56.662Z,61.02
2022-10-15T15:32:26.707Z,61.70
2022-10-15T15:34:56.326Z,62.13
2022-10-15T15:37:26.260Z,62.61
2022-10-15T15:39:55.618Z,62.61
2022-10-15T15:42:25.435Z,63.32
2022-10-15T15:44:54.118Z,63.31
2022-10-15T15:47:22.150Z,63.43
2022-10-15T15:49:51.747Z,66.48
2022-10-15T15:52:19.757Z,68.48
2022-10-15T15:54:48.062Z,66.81
2022-10-15T15:57:16.775Z,65.88
2022-10-15T15:59:44.874Z,65.52
2022-10-15T16:02:13.771Z,65.02
2022-10-15T16:04:41.806Z,64.33
2022-10-15T16:07:13.430Z,64.40
2022-10-15T16:09:41.936Z,64.31
2022-10-15T16:12:09.912Z,64.32
2022-10-15T16:14:37.997Z,64.83
2022-10-15T16:17:06.045Z,68.70
2022-10-15T16:19:34.030Z,72.74
2022-10-15T16:22:02.326Z,73.03
2022-10-15T16:24:31.906Z,73.57
2022-10-15T16:26:59.975Z,71.64
2022-10-15T16:29:28.085Z,71.13
2022-10-15T16:31:56.367Z,70.42
2022-10-15T16:34:25.142Z,70.05
2022-10-15T16:36:53.244Z,70.14
2022-10-15T16:39:21.414Z,70.66
2022-10-15T16:41:51.322Z,77.47
2022-10-15T16:44:19.324Z,81.35
2022-10-15T16:46:47.588Z,81.80
2022-10-15T16:49:15.688Z,84.31
2022-10-15T16:51:43.958Z,85.01
2022-10-15T16:54:15.566Z,82.12
2022-10-15T16:56:45.383Z,80.68
2022-10-15T16:59:17.358Z,79.15
2022-10-15T17:01:45.392Z,77.52
2022-10-15T17:04:13.447Z,76.28
2022-10-15T17:06:41.574Z,75.38
2022-10-15T17:09:10.051Z,74.98
2022-10-15T17:11:39.553Z,74.41
2022-10-15T17:14:09.402Z,74.41
2022-10-15T17:16:41.059Z,74.30
2022-10-15T17:19:10.534Z,73.61
2022-10-15T17:21:42.367Z,73.40
2022-10-15T17:24:13.517Z,74.17
2022-10-15T17:26:43.239Z,74.47
2022-10-15T17:29:13.100Z,74.98
2022-10-15T17:31:42.991Z,75.13
2022-10-15T17:34:12.745Z,75.14
2022-10-15T17:36:45.658Z,74.67
2022-10-15T17:39:17.451Z,74.44
2022-10-15T17:41:45.990Z,73.63
2022-10-15T17:44:14.212Z,72.67
2022-10-15T17:46:43.983Z,71.80
2022-10-15T17:49:14.019Z,72.19
2022-10-15T17:51:42.102Z,72.99
2022-10-15T17:54:10.108Z,74.15
2022-10-15T17:56:40.021Z,75.69
2022-10-15T17:59:10.308Z,76.92
2022-10-15T18:01:57.345Z,78.73
2022-10-15T18:04:28.273Z,79.44
2022-10-15T18:06:56.354Z,79.03
2022-10-15T18:09:24.455Z,79.24
2022-10-15T18:11:52.585Z,79.83
2022-10-15T18:16:49.209Z,80.30
2022-10-15T18:19:17.286Z,81.19
2022-10-15T18:21:49.533Z,80.75
2022-10-15T18:24:21.587Z,80.62
2022-10-15T18:26:50.299Z,79.40
2022-10-15T18:29:18.999Z,78.76
2022-10-15T18:31:51.147Z,78.30
2022-10-15T18:34:21.734Z,77.70
2022-10-15T18:36:51.205Z,77.61
2022-10-15T18:39:19.566Z,76.88
2022-10-15T18:41:47.839Z,76.74
2022-10-15T18:44:17.666Z,75.98
2022-10-15T18:46:46.073Z,76.31
2022-10-15T18:49:16.212Z,76.64
2022-10-15T18:51:46.210Z,77.02
2022-10-15T18:54:15.706Z,78.17
2022-10-15T18:56:43.769Z,79.85
2022-10-15T18:59:11.833Z,81.27
2022-10-15T19:01:43.290Z,80.62
2022-10-15T19:04:13.339Z,81.45
2022-10-15T19:06:43.277Z,82.58
2022-10-15T19:09:13.228Z,83.36
2022-10-15T19:11:44.940Z,83.08
2022-10-15T19:14:13.698Z,82.77
2022-10-15T19:16:41.791Z,81.82
2022-10-15T19:19:10.218Z,81.62
2022-10-15T19:21:38.526Z,80.44
2022-10-15T19:24:07.052Z,80.30
2022-10-15T19:26:35.614Z,80.41
2022-10-15T19:29:05.623Z,79.70
2022-10-15T19:31:35.811Z,79.33
2022-10-15T19:34:04.588Z,79.51
2022-10-15T19:36:35.567Z,79.52
2022-10-15T19:39:06.022Z,79.87
2022-10-15T19:41:36.602Z,80.37
2022-10-15T19:44:08.367Z,80.33
2022-10-15T19:46:36.634Z,80.72
2022-10-15T19:49:05.406Z,80.50
2022-10-15T19:51:33.485Z,80.31
2022-10-15T19:54:01.470Z,80.46
2022-10-15T19:56:29.479Z,80.08
2022-10-15T19:58:58.058Z,80.25
2022-10-15T20:01:28.714Z,81.26
2022-10-15T20:04:01.624Z,81.92
2022-10-15T20:06:33.314Z,81.25
2022-10-15T20:09:02.330Z,81.19
2022-10-15T20:11:30.550Z,81.92
2022-10-15T20:13:59.692Z,82.78
2022-10-15T20:16:32.734Z,81.97
2022-10-15T20:19:02.530Z,82.83
2022-10-15T20:21:30.736Z,82.98
2022-10-15T20:23:58.930Z,83.36
2022-10-15T20:26:26.938Z,84.05
2022-10-15T20:28:54.922Z,84.55
2022-10-15T20:31:28.542Z,84.62
2022-10-15T20:33:57.930Z,85.37
2022-10-15T20:36:27.402Z,85.72
2022-10-15T20:38:55.789Z,86.41
2022-10-15T20:41:23.802Z,89.09
2022-10-15T20:43:55.466Z,90.93
2022-10-15T20:46:28.257Z,92.08
2022-10-15T20:49:02.258Z,92.38
2022-10-15T20:51:34.598Z,94.14
2022-10-15T20:54:03.503Z,93.18
2022-10-15T20:56:31.740Z,92.54
2022-10-15T20:58:59.892Z,92.11
2022-10-15T21:01:28.177Z,92.50
2022-10-15T21:03:57.619Z,94.39
2022-10-15T21:06:25.706Z,94.34
2022-10-15T21:08:53.674Z,95.50
2022-10-15T21:11:21.757Z,95.87
2022-10-15T21:13:49.706Z,95.73
2022-10-15T21:16:18.018Z,96.08
2022-10-15T21:18:46.118Z,95.43
2022-10-15T21:21:16.328Z,94.22
2022-10-15T21:23:44.343Z,92.99
2022-10-15T21:26:14.298Z,92.32
2022-10-15T21:28:42.832Z,92.34
2022-10-15T21:31:13.141Z,91.77
2022-10-15T21:33:41.818Z,92.28
2022-10-15T21:36:16.186Z,91.70
2022-10-15T21:38:44.138Z,91.81
2022-10-15T21:41:12.185Z,91.22
2022-10-15T21:43:40.515Z,90.53
2022-10-15T21:46:09.824Z,89.56
2022-10-15T21:48:38.890Z,90.22
2022-10-15T21:51:11.011Z,89.66
2022-10-15T21:53:40.877Z,89.05
2022-10-15T21:56:09.322Z,89.18
2022-10-15T21:58:38.726Z,89.48
2022-10-15T22:01:13.479Z,88.92
2022-10-15T22:03:44.325Z,91.21
2022-10-15T22:06:13.285Z,90.79
2022-10-15T22:08:43.756Z,91.08
2022-10-15T22:11:14.594Z,90.35
2022-10-15T22:13:43.736Z,89.78
2022-10-15T22:16:12.683Z,89.76
2022-10-15T22:18:41.231Z,89.14
2022-10-15T22:21:15.299Z,89.52
2022-10-15T22:23:46.507Z,89.67
2022-10-15T22:26:15.663Z,90.80
2022-10-15T22:28:45.038Z,89.56
2022-10-15T22:31:16.752Z,89.31
2022-10-15T22:33:45.859Z,89.31
2022-10-15T22:36:17.158Z,88.00
2022-10-15T22:38:49.141Z,87.74
2022-10-15T22:41:17.670Z,87.45
2022-10-15T22:43:46.165Z,86.97
2022-10-15T22:46:14.529Z,87.57
2022-10-15T22:48:43.716Z,87.03
2022-10-15T22:51:14.681Z,87.68
2022-10-15T22:53:43.191Z,86.38
2022-10-15T22:56:16.458Z,85.62
2022-10-15T22:58:45.663Z,86.21
2022-10-15T23:01:16.034Z,86.17
2022-10-15T23:03:46.944Z,85.80
2022-10-15T23:06:15.537Z,85.46
2022-10-15T23:08:45.398Z,85.82
2022-10-15T23:11:17.118Z,85.25
2022-10-15T23:13:46.414Z,85.61
2022-10-15T23:16:16.863Z,85.14
2022-10-15T23:18:46.952Z,85.58
2022-10-15T23:21:17.706Z,85.27
2022-10-15T23:23:47.031Z,85.17
2022-10-15T23:26:17.558Z,85.69
2022-10-15T23:28:46.401Z,85.38
2022-10-15T23:31:18.285Z,84.91
2022-10-15T23:33:46.261Z,85.42
2022-10-15T23:36:14.674Z,85.88
2022-10-15T23:38:42.808Z,87.07
2022-10-15T23:41:11.552Z,86.79
2022-10-15T23:43:40.873Z,86.07
2022-10-15T23:46:09.114Z,86.16
2022-10-15T23:48:37.789Z,85.63
2022-10-15T23:51:13.538Z,85.68
2022-10-15T23:53:42.114Z,85.96
2022-10-15T23:56:10.053Z,86.83
2022-10-15T23:58:38.910Z,86.27
